sensor_id;sensor_type;location;lat;lon;timestamp;P1;durP1;ratioP1;P2;durP2;ratioP2
58308;SDS011;44117;57.142;24.826;2022-09-27T00:02:16;13.98;;;6.00;;
58308;SDS011;44117;57.142;24.826;2022-09-27T00:04:43;10.55;;;6.40;;
58308;SDS011;44117;57.142;24.826;2022-09-27T00:07:10;10.73;;;6.47;;
58308;SDS011;44117;57.142;24.826;2022-09-27T00:09:38;8.38;;;5.95;;
58308;SDS011;44117;57.142;24.826;2022-09-27T00:12:05;9.52;;;5.93;;
58308;SDS011;44117;57.142;24.826;2022-09-27T00:14:32;9.82;;;6.03;;
58308;SDS011;44117;57.142;24.826;2022-09-27T00:16:59;8.20;;;6.00;;
58308;SDS011;44117;57.142;24.826;2022-09-27T00:19:27;8.10;;;5.97;;
58308;SDS011;44117;57.142;24.826;2022-09-27T00:21:55;7.28;;;5.20;;
58308;SDS011;44117;57.142;24.826;2022-09-27T00:24:22;6.28;;;4.78;;
58308;SDS011;44117;57.142;24.826;2022-09-27T00:26:49;6.93;;;4.70;;
58308;SDS011;44117;57.142;24.826;2022-09-27T00:29:17;6.57;;;4.47;;
58308;SDS011;44117;57.142;24.826;2022-09-27T00:31:45;6.47;;;4.63;;
58308;SDS011;44117;57.142;24.826;2022-09-27T00:34:19;6.90;;;4.60;;
58308;SDS011;44117;57.142;24.826;2022-09-27T00:36:51;5.88;;;4.50;;
58308;SDS011;44117;57.142;24.826;2022-09-27T00:39:18;9.13;;;4.85;;
58308;SDS011;44117;57.142;24.826;2022-09-27T00:41:46;7.05;;;4.88;;
58308;SDS011;44117;57.142;24.826;2022-09-27T00:55:25;23.83;;;9.95;;
58308;SDS011;44117;57.142;24.826;2022-09-27T00:58:00;27.92;;;9.80;;
58308;SDS011;44117;57.142;24.826;2022-09-27T01:00:30;27.92;;;10.73;;
58308;SDS011;44117;57.142;24.826;2022-09-27T01:02:58;19.33;;;7.93;;
58308;SDS011;44117;57.142;24.826;2022-09-27T01:05:27;32.08;;;11.13;;
58308;SDS011;44117;57.142;24.826;2022-09-27T01:07:55;18.13;;;7.00;;
58308;SDS011;44117;57.142;24.826;2022-09-27T01:10:31;23.60;;;9.00;;
58308;SDS011;44117;57.142;24.826;2022-09-27T01:13:22;16.77;;;7.97;;
58308;SDS011;44117;57.142;24.826;2022-09-27T01:16:05;20.90;;;9.45;;
58308;SDS011;44117;57.142;24.826;2022-09-27T01:18:48;25.30;;;11.05;;
58308;SDS011;44117;57.142;24.826;2022-09-27T01:32:15;10.98;;;6.40;;
58308;SDS011;44117;57.142;24.826;2022-09-27T01:34:57;13.18;;;7.25;;
58308;SDS011;44117;57.142;24.826;2022-09-27T01:37:38;8.93;;;5.70;;
58308;SDS011;44117;57.142;24.826;2022-09-27T01:43:14;7.38;;;4.90;;
58308;SDS011;44117;57.142;24.826;2022-09-27T01:46:09;8.60;;;4.65;;
58308;SDS011;44117;57.142;24.826;2022-09-27T01:48:43;8.23;;;5.32;;
58308;SDS011;44117;57.142;24.826;2022-09-27T01:51:21;7.10;;;4.28;;
58308;SDS011;44117;57.142;24.826;2022-09-27T01:54:00;6.38;;;4.43;;
58308;SDS011;44117;57.142;24.826;2022-09-27T01:56:33;6.55;;;4.80;;
58308;SDS011;44117;57.142;24.826;2022-09-27T02:01:37;7.93;;;5.00;;
58308;SDS011;44117;57.142;24.826;2022-09-27T02:04:07;6.93;;;5.10;;
58308;SDS011;44117;57.142;24.826;2022-09-27T02:06:40;7.55;;;5.82;;
58308;SDS011;44117;57.142;24.826;2022-09-27T02:09:12;6.05;;;4.88;;
58308;SDS011;44117;57.142;24.826;2022-09-27T02:11:41;7.13;;;4.90;;
58308;SDS011;44117;57.142;24.826;2022-09-27T02:14:23;7.90;;;4.70;;
58308;SDS011;44117;57.142;24.826;2022-09-27T02:17:39;7.15;;;5.68;;
58308;SDS011;44117;57.142;24.826;2022-09-27T02:22:34;6.18;;;4.70;;
58308;SDS011;44117;57.142;24.826;2022-09-27T02:27:58;5.72;;;4.70;;
58308;SDS011;44117;57.142;24.826;2022-09-27T02:30:39;5.78;;;4.80;;
58308;SDS011;44117;57.142;24.826;2022-09-27T02:33:07;7.07;;;4.85;;
58308;SDS011;44117;57.142;24.826;2022-09-27T02:35:34;6.45;;;4.90;;
58308;SDS011;44117;57.142;24.826;2022-09-27T02:38:03;7.38;;;5.25;;
58308;SDS011;44117;57.142;24.826;2022-09-27T02:40:34;6.03;;;4.90;;
58308;SDS011;44117;57.142;24.826;2022-09-27T02:43:07;5.57;;;4.75;;
58308;SDS011;44117;57.142;24.826;2022-09-27T02:45:49;7.90;;;5.18;;
58308;SDS011;44117;57.142;24.826;2022-09-27T02:51:08;10.32;;;5.97;;
58308;SDS011;44117;57.142;24.826;2022-09-27T02:53:59;9.23;;;6.47;;
58308;SDS011;44117;57.142;24.826;2022-09-27T02:59:39;14.05;;;7.50;;
58308;SDS011;44117;57.142;24.826;2022-09-27T03:04:43;9.60;;;6.65;;
58308;SDS011;44117;57.142;24.826;2022-09-27T03:07:16;10.85;;;6.97;;
58308;SDS011;44117;57.142;24.826;2022-09-27T03:09:45;10.80;;;6.80;;
58308;SDS011;44117;57.142;24.826;2022-09-27T03:12:15;8.65;;;6.30;;
58308;SDS011;44117;57.142;24.826;2022-09-27T03:14:48;8.45;;;6.18;;
58308;SDS011;44117;57.142;24.826;2022-09-27T03:17:15;9.43;;;6.25;;
58308;SDS011;44117;57.142;24.826;2022-09-27T03:19:43;8.85;;;6.30;;
58308;SDS011;44117;57.142;24.826;2022-09-27T03:22:10;8.75;;;5.15;;
58308;SDS011;44117;57.142;24.826;2022-09-27T03:24:37;12.63;;;6.07;;
58308;SDS011;44117;57.142;24.826;2022-09-27T03:27:05;9.18;;;6.40;;
58308;SDS011;44117;57.142;24.826;2022-09-27T03:29:32;7.30;;;5.60;;
58308;SDS011;44117;57.142;24.826;2022-09-27T03:31:59;8.82;;;6.25;;
58308;SDS011;44117;57.142;24.826;2022-09-27T03:34:27;8.73;;;6.22;;
58308;SDS011;44117;57.142;24.826;2022-09-27T03:36:55;10.20;;;6.45;;
58308;SDS011;44117;57.142;24.826;2022-09-27T03:39:22;7.82;;;5.90;;
58308;SDS011;44117;57.142;24.826;2022-09-27T03:41:50;11.35;;;7.07;;
58308;SDS011;44117;57.142;24.826;2022-09-27T03:44:17;8.60;;;6.85;;
58308;SDS011;44117;57.142;24.826;2022-09-27T03:46:44;11.38;;;6.53;;
58308;SDS011;44117;57.142;24.826;2022-09-27T03:49:12;8.50;;;6.82;;
58308;SDS011;44117;57.142;24.826;2022-09-27T03:51:39;8.45;;;6.50;;
58308;SDS011;44117;57.142;24.826;2022-09-27T03:54:08;8.70;;;6.05;;
58308;SDS011;44117;57.142;24.826;2022-09-27T03:56:35;9.05;;;6.68;;
58308;SDS011;44117;57.142;24.826;2022-09-27T03:59:02;9.18;;;6.18;;
58308;SDS011;44117;57.142;24.826;2022-09-27T04:01:30;8.23;;;6.35;;
58308;SDS011;44117;57.142;24.826;2022-09-27T04:03:57;8.77;;;6.53;;
58308;SDS011;44117;57.142;24.826;2022-09-27T04:06:25;9.50;;;6.28;;
58308;SDS011;44117;57.142;24.826;2022-09-27T04:08:52;9.23;;;5.80;;
58308;SDS011;44117;57.142;24.826;2022-09-27T04:11:19;9.48;;;6.65;;
58308;SDS011;44117;57.142;24.826;2022-09-27T04:13:49;8.90;;;6.85;;
58308;SDS011;44117;57.142;24.826;2022-09-27T04:16:16;10.15;;;6.28;;
58308;SDS011;44117;57.142;24.826;2022-09-27T04:18:44;11.15;;;6.70;;
58308;SDS011;44117;57.142;24.826;2022-09-27T04:21:12;8.95;;;6.28;;
58308;SDS011;44117;57.142;24.826;2022-09-27T04:23:39;10.90;;;6.65;;
58308;SDS011;44117;57.142;24.826;2022-09-27T04:26:07;8.73;;;6.13;;
58308;SDS011;44117;57.142;24.826;2022-09-27T04:28:34;10.82;;;5.90;;
58308;SDS011;44117;57.142;24.826;2022-09-27T04:31:02;12.18;;;6.80;;
58308;SDS011;44117;57.142;24.826;2022-09-27T04:33:30;8.43;;;6.55;;
58308;SDS011;44117;57.142;24.826;2022-09-27T04:35:57;11.80;;;6.82;;
58308;SDS011;44117;57.142;24.826;2022-09-27T04:38:43;9.05;;;6.38;;
58308;SDS011;44117;57.142;24.826;2022-09-27T04:41:10;10.40;;;7.03;;
58308;SDS011;44117;57.142;24.826;2022-09-27T04:43:39;10.52;;;6.95;;
58308;SDS011;44117;57.142;24.826;2022-09-27T04:46:06;12.27;;;7.22;;
58308;SDS011;44117;57.142;24.826;2022-09-27T04:48:34;10.93;;;7.17;;
58308;SDS011;44117;57.142;24.826;2022-09-27T04:51:01;9.75;;;8.07;;
58308;SDS011;44117;57.142;24.826;2022-09-27T04:53:29;9.10;;;6.80;;
58308;SDS011;44117;57.142;24.826;2022-09-27T04:55:57;9.73;;;6.68;;
58308;SDS011;44117;57.142;24.826;2022-09-27T04:58:26;11.10;;;8.18;;
58308;SDS011;44117;57.142;24.826;2022-09-27T05:00:55;12.93;;;9.02;;
58308;SDS011;44117;57.142;24.826;2022-09-27T05:03:23;14.90;;;10.50;;
58308;SDS011;44117;57.142;24.826;2022-09-27T05:05:50;12.48;;;9.18;;
58308;SDS011;44117;57.142;24.826;2022-09-27T05:08:18;14.50;;;9.55;;
58308;SDS011;44117;57.142;24.826;2022-09-27T05:10:46;12.27;;;8.65;;
58308;SDS011;44117;57.142;24.826;2022-09-27T05:13:15;15.60;;;9.90;;
58308;SDS011;44117;57.142;24.826;2022-09-27T05:15:43;17.23;;;11.23;;
58308;SDS011;44117;57.142;24.826;2022-09-27T05:18:11;21.27;;;12.48;;
58308;SDS011;44117;57.142;24.826;2022-09-27T05:20:39;18.45;;;12.73;;
58308;SDS011;44117;57.142;24.826;2022-09-27T05:23:07;20.02;;;12.57;;
58308;SDS011;44117;57.142;24.826;2022-09-27T05:25:34;15.23;;;10.90;;
58308;SDS011;44117;57.142;24.826;2022-09-27T05:28:02;15.10;;;11.48;;
58308;SDS011;44117;57.142;24.826;2022-09-27T05:30:30;16.23;;;11.52;;
58308;SDS011;44117;57.142;24.826;2022-09-27T05:32:58;14.77;;;10.10;;
58308;SDS011;44117;57.142;24.826;2022-09-27T05:35:25;14.45;;;10.98;;
58308;SDS011;44117;57.142;24.826;2022-09-27T05:37:54;16.67;;;10.32;;
58308;SDS011;44117;57.142;24.826;2022-09-27T05:40:26;17.27;;;10.27;;
58308;SDS011;44117;57.142;24.826;2022-09-27T05:43:06;15.45;;;10.57;;
58308;SDS011;44117;57.142;24.826;2022-09-27T05:45:34;13.63;;;10.23;;
58308;SDS011;44117;57.142;24.826;2022-09-27T05:48:02;16.25;;;10.70;;
58308;SDS011;44117;57.142;24.826;2022-09-27T05:50:30;13.18;;;10.02;;
58308;SDS011;44117;57.142;24.826;2022-09-27T05:52:58;14.27;;;10.35;;
58308;SDS011;44117;57.142;24.826;2022-09-27T05:55:25;13.40;;;10.48;;
58308;SDS011;44117;57.142;24.826;2022-09-27T05:58:00;12.45;;;10.20;;
58308;SDS011;44117;57.142;24.826;2022-09-27T06:00:29;16.85;;;10.88;;
58308;SDS011;44117;57.142;24.826;2022-09-27T06:02:58;13.55;;;10.32;;
58308;SDS011;44117;57.142;24.826;2022-09-27T06:05:29;13.82;;;10.23;;
58308;SDS011;44117;57.142;24.826;2022-09-27T06:07:58;13.55;;;10.38;;
58308;SDS011;44117;57.142;24.826;2022-09-27T06:10:27;13.40;;;10.45;;
58308;SDS011;44117;57.142;24.826;2022-09-27T06:12:59;13.70;;;10.00;;
58308;SDS011;44117;57.142;24.826;2022-09-27T06:15:28;14.95;;;11.13;;
58308;SDS011;44117;57.142;24.826;2022-09-27T06:18:01;13.32;;;10.93;;
58308;SDS011;44117;57.142;24.826;2022-09-27T06:20:33;13.00;;;10.63;;
58308;SDS011;44117;57.142;24.826;2022-09-27T06:23:11;12.82;;;11.32;;
58308;SDS011;44117;57.142;24.826;2022-09-27T06:25:40;14.88;;;9.75;;
58308;SDS011;44117;57.142;24.826;2022-09-27T06:28:08;14.13;;;10.20;;
58308;SDS011;44117;57.142;24.826;2022-09-27T06:30:39;11.20;;;9.75;;
58308;SDS011;44117;57.142;24.826;2022-09-27T06:33:09;11.30;;;8.90;;
58308;SDS011;44117;57.142;24.826;2022-09-27T06:35:40;10.82;;;8.77;;
58308;SDS011;44117;57.142;24.826;2022-09-27T06:38:14;11.02;;;8.65;;
58308;SDS011;44117;57.142;24.826;2022-09-27T06:40:43;10.35;;;9.27;;
58308;SDS011;44117;57.142;24.826;2022-09-27T06:43:12;12.27;;;10.45;;
58308;SDS011;44117;57.142;24.826;2022-09-27T06:45:41;13.27;;;9.02;;
58308;SDS011;44117;57.142;24.826;2022-09-27T06:48:10;11.57;;;8.40;;
58308;SDS011;44117;57.142;24.826;2022-09-27T06:50:39;10.45;;;9.45;;
58308;SDS011;44117;57.142;24.826;2022-09-27T06:53:10;10.27;;;9.07;;
58308;SDS011;44117;57.142;24.826;2022-09-27T06:55:39;10.57;;;9.48;;
58308;SDS011;44117;57.142;24.826;2022-09-27T06:58:08;10.02;;;8.93;;
58308;SDS011;44117;57.142;24.826;2022-09-27T07:00:55;11.90;;;8.70;;
58308;SDS011;44117;57.142;24.826;2022-09-27T07:03:24;10.40;;;8.50;;
58308;SDS011;44117;57.142;24.826;2022-09-27T07:06:02;10.77;;;8.90;;
58308;SDS011;44117;57.142;24.826;2022-09-27T07:08:31;19.70;;;16.83;;
58308;SDS011;44117;57.142;24.826;2022-09-27T07:11:02;11.55;;;9.77;;
58308;SDS011;44117;57.142;24.826;2022-09-27T07:13:32;13.15;;;11.45;;
58308;SDS011;44117;57.142;24.826;2022-09-27T07:16:02;11.05;;;9.98;;
58308;SDS011;44117;57.142;24.826;2022-09-27T07:18:30;8.20;;;7.28;;
58308;SDS011;44117;57.142;24.826;2022-09-27T07:21:00;8.77;;;7.40;;
58308;SDS011;44117;57.142;24.826;2022-09-27T07:23:28;8.63;;;7.20;;
58308;SDS011;44117;57.142;24.826;2022-09-27T07:25:55;10.07;;;7.80;;
58308;SDS011;44117;57.142;24.826;2022-09-27T07:28:28;8.55;;;7.63;;
58308;SDS011;44117;57.142;24.826;2022-09-27T07:30:56;8.38;;;7.38;;
58308;SDS011;44117;57.142;24.826;2022-09-27T07:33:24;8.45;;;7.60;;
58308;SDS011;44117;57.142;24.826;2022-09-27T07:35:51;8.35;;;7.40;;
58308;SDS011;44117;57.142;24.826;2022-09-27T07:38:19;8.32;;;7.47;;
58308;SDS011;44117;57.142;24.826;2022-09-27T07:40:46;10.32;;;8.00;;
58308;SDS011;44117;57.142;24.826;2022-09-27T07:43:14;8.40;;;7.50;;
58308;SDS011;44117;57.142;24.826;2022-09-27T07:45:41;8.55;;;7.70;;
58308;SDS011;44117;57.142;24.826;2022-09-27T07:48:09;10.18;;;8.18;;
58308;SDS011;44117;57.142;24.826;2022-09-27T07:50:39;12.98;;;11.52;;
58308;SDS011;44117;57.142;24.826;2022-09-27T07:53:07;18.65;;;15.85;;
58308;SDS011;44117;57.142;24.826;2022-09-27T07:55:38;14.60;;;12.88;;
58308;SDS011;44117;57.142;24.826;2022-09-27T07:58:10;11.25;;;8.57;;
58308;SDS011;44117;57.142;24.826;2022-09-27T08:00:37;9.65;;;8.43;;
58308;SDS011;44117;57.142;24.826;2022-09-27T08:03:06;8.07;;;7.28;;
58308;SDS011;44117;57.142;24.826;2022-09-27T08:05:36;9.65;;;7.53;;
58308;SDS011;44117;57.142;24.826;2022-09-27T08:08:04;9.85;;;7.85;;
58308;SDS011;44117;57.142;24.826;2022-09-27T08:10:32;9.27;;;7.47;;
58308;SDS011;44117;57.142;24.826;2022-09-27T08:13:00;9.48;;;6.95;;
58308;SDS011;44117;57.142;24.826;2022-09-27T08:15:32;7.45;;;6.75;;
58308;SDS011;44117;57.142;24.826;2022-09-27T08:18:05;7.85;;;6.82;;
58308;SDS011;44117;57.142;24.826;2022-09-27T08:20:33;7.15;;;6.45;;
58308;SDS011;44117;57.142;24.826;2022-09-27T08:23:01;8.85;;;6.20;;
58308;SDS011;44117;57.142;24.826;2022-09-27T08:25:29;8.32;;;6.78;;
58308;SDS011;44117;57.142;24.826;2022-09-27T08:27:57;7.97;;;6.53;;
58308;SDS011;44117;57.142;24.826;2022-09-27T08:30:26;8.88;;;5.95;;
58308;SDS011;44117;57.142;24.826;2022-09-27T08:32:56;8.93;;;6.13;;
58308;SDS011;44117;57.142;24.826;2022-09-27T08:35:25;7.93;;;6.00;;
58308;SDS011;44117;57.142;24.826;2022-09-27T08:37:54;6.68;;;5.93;;
58308;SDS011;44117;57.142;24.826;2022-09-27T08:40:27;8.32;;;6.20;;
58308;SDS011;44117;57.142;24.826;2022-09-27T08:43:22;7.07;;;6.18;;
58308;SDS011;44117;57.142;24.826;2022-09-27T08:48:48;6.35;;;5.75;;
58308;SDS011;44117;57.142;24.826;2022-09-27T08:51:27;9.90;;;5.72;;
58308;SDS011;44117;57.142;24.826;2022-09-27T08:53:59;7.30;;;6.25;;
58308;SDS011;44117;57.142;24.826;2022-09-27T08:56:32;7.13;;;6.38;;
58308;SDS011;44117;57.142;24.826;2022-09-27T08:59:03;7.63;;;6.93;;
58308;SDS011;44117;57.142;24.826;2022-09-27T09:01:49;7.47;;;6.50;;
58308;SDS011;44117;57.142;24.826;2022-09-27T09:04:26;7.35;;;6.65;;
58308;SDS011;44117;57.142;24.826;2022-09-27T09:09:45;9.70;;;6.70;;
58308;SDS011;44117;57.142;24.826;2022-09-27T09:12:30;7.47;;;6.82;;
58308;SDS011;44117;57.142;24.826;2022-09-27T09:15:25;8.10;;;7.30;;
58308;SDS011;44117;57.142;24.826;2022-09-27T09:24:00;7.85;;;7.05;;
58308;SDS011;44117;57.142;24.826;2022-09-27T09:26:41;8.25;;;7.45;;
58308;SDS011;44117;57.142;24.826;2022-09-27T09:29:23;8.93;;;7.65;;
58308;SDS011;44117;57.142;24.826;2022-09-27T09:32:06;8.75;;;7.85;;
58308;SDS011;44117;57.142;24.826;2022-09-27T09:34:58;9.00;;;8.20;;
58308;SDS011;44117;57.142;24.826;2022-09-27T09:37:38;9.20;;;8.30;;
58308;SDS011;44117;57.142;24.826;2022-09-27T09:45:49;9.45;;;8.18;;
58308;SDS011;44117;57.142;24.826;2022-09-27T09:48:43;10.27;;;7.90;;
58308;SDS011;44117;57.142;24.826;2022-09-27T09:51:28;8.25;;;7.45;;
58308;SDS011;44117;57.142;24.826;2022-09-27T09:54:03;7.22;;;6.63;;
58308;SDS011;44117;57.142;24.826;2022-09-27T09:56:46;7.90;;;7.13;;
58308;SDS011;44117;57.142;24.826;2022-09-27T09:59:28;7.72;;;6.97;;
58308;SDS011;44117;57.142;24.826;2022-09-27T10:04:52;7.72;;;6.93;;
58308;SDS011;44117;57.142;24.826;2022-09-27T10:07:21;8.13;;;7.32;;
58308;SDS011;44117;57.142;24.826;2022-09-27T10:09:50;8.82;;;6.60;;
58308;SDS011;44117;57.142;24.826;2022-09-27T10:12:20;7.40;;;6.70;;
58308;SDS011;44117;57.142;24.826;2022-09-27T10:14:48;7.65;;;6.57;;
58308;SDS011;44117;57.142;24.826;2022-09-27T10:17:23;6.40;;;5.80;;
58308;SDS011;44117;57.142;24.826;2022-09-27T10:19:55;6.22;;;5.60;;
58308;SDS011;44117;57.142;24.826;2022-09-27T10:22:27;6.07;;;5.47;;
58308;SDS011;44117;57.142;24.826;2022-09-27T10:27:37;6.50;;;5.03;;
58308;SDS011;44117;57.142;24.826;2022-09-27T10:33:17;6.20;;;5.60;;
58308;SDS011;44117;57.142;24.826;2022-09-27T10:35:46;6.03;;;5.10;;
58308;SDS011;44117;57.142;24.826;2022-09-27T10:38:21;6.13;;;5.50;;
58308;SDS011;44117;57.142;24.826;2022-09-27T10:40:53;5.97;;;5.47;;
58308;SDS011;44117;57.142;24.826;2022-09-27T10:43:29;7.75;;;5.95;;
58308;SDS011;44117;57.142;24.826;2022-09-27T10:51:35;6.75;;;5.50;;
58308;SDS011;44117;57.142;24.826;2022-09-27T10:54:03;7.72;;;6.20;;
58308;SDS011;44117;57.142;24.826;2022-09-27T10:56:32;6.22;;;5.68;;
58308;SDS011;44117;57.142;24.826;2022-09-27T10:59:00;5.63;;;4.93;;
58308;SDS011;44117;57.142;24.826;2022-09-27T11:01:41;6.60;;;5.15;;
58308;SDS011;44117;57.142;24.826;2022-09-27T11:04:27;5.05;;;4.55;;
58308;SDS011;44117;57.142;24.826;2022-09-27T11:07:33;6.15;;;4.72;;
58308;SDS011;44117;57.142;24.826;2022-09-27T11:09:56;5.32;;;4.82;;
58308;SDS011;44117;57.142;24.826;2022-09-27T11:12:30;5.72;;;4.20;;
58308;SDS011;44117;57.142;24.826;2022-09-27T11:15:02;5.47;;;4.20;;
58308;SDS011;44117;57.142;24.826;2022-09-27T11:23:33;5.55;;;4.35;;
58308;SDS011;44117;57.142;24.826;2022-09-27T11:34:55;5.03;;;4.07;;
58308;SDS011;44117;57.142;24.826;2022-09-27T11:37:39;4.20;;;3.80;;
58308;SDS011;44117;57.142;24.826;2022-09-27T11:46:01;4.60;;;4.10;;
58308;SDS011;44117;57.142;24.826;2022-09-27T12:06:11;7.50;;;5.18;;
58308;SDS011;44117;57.142;24.826;2022-09-27T12:08:35;8.27;;;6.18;;
58308;SDS011;44117;57.142;24.826;2022-09-27T12:11:25;9.93;;;8.93;;
58308;SDS011;44117;57.142;24.826;2022-09-27T12:16:51;34.45;;;24.52;;
58308;SDS011;44117;57.142;24.826;2022-09-27T12:19:24;28.83;;;22.13;;
58308;SDS011;44117;57.142;24.826;2022-09-27T12:21:55;20.73;;;16.08;;
58308;SDS011;44117;57.142;24.826;2022-09-27T12:24:24;13.77;;;10.07;;
58308;SDS011;44117;57.142;24.826;2022-09-27T12:26:54;15.85;;;12.13;;
58308;SDS011;44117;57.142;24.826;2022-09-27T12:29:29;12.00;;;8.90;;
58308;SDS011;44117;57.142;24.826;2022-09-27T12:35:02;12.55;;;11.27;;
58308;SDS011;44117;57.142;24.826;2022-09-27T12:37:34;7.55;;;6.85;;
58308;SDS011;44117;57.142;24.826;2022-09-27T12:40:14;5.63;;;4.85;;
58308;SDS011;44117;57.142;24.826;2022-09-27T12:42:53;5.80;;;4.80;;
58308;SDS011;44117;57.142;24.826;2022-09-27T12:45:48;7.57;;;6.60;;
58308;SDS011;44117;57.142;24.826;2022-09-27T12:51:20;7.35;;;5.13;;
58308;SDS011;44117;57.142;24.826;2022-09-27T12:59:04;7.90;;;5.07;;
58308;SDS011;44117;57.142;24.826;2022-09-27T13:10:54;4.60;;;3.60;;
58308;SDS011;44117;57.142;24.826;2022-09-27T13:13:11;5.45;;;4.00;;
58308;SDS011;44117;57.142;24.826;2022-09-27T13:15:41;4.50;;;4.10;;
58308;SDS011;44117;57.142;24.826;2022-09-27T13:20:57;14.90;;;13.38;;
58308;SDS011;44117;57.142;24.826;2022-09-27T13:25:55;9.77;;;8.75;;
58308;SDS011;44117;57.142;24.826;2022-09-27T13:30:59;4.35;;;3.83;;
58308;SDS011;44117;57.142;24.826;2022-09-27T13:33:51;4.70;;;3.85;;
58308;SDS011;44117;57.142;24.826;2022-09-27T13:49:58;4.82;;;3.97;;
58308;SDS011;44117;57.142;24.826;2022-09-27T13:52:41;6.90;;;3.72;;
58308;SDS011;44117;57.142;24.826;2022-09-27T13:58:24;4.47;;;3.67;;
58308;SDS011;44117;57.142;24.826;2022-09-27T14:01:10;5.60;;;3.90;;
58308;SDS011;44117;57.142;24.826;2022-09-27T14:03:55;5.40;;;4.60;;
58308;SDS011;44117;57.142;24.826;2022-09-27T14:06:29;4.93;;;4.45;;
58308;SDS011;44117;57.142;24.826;2022-09-27T14:09:04;4.38;;;3.92;;
58308;SDS011;44117;57.142;24.826;2022-09-27T14:11:35;5.45;;;4.40;;
58308;SDS011;44117;57.142;24.826;2022-09-27T14:14:05;7.72;;;4.38;;
58308;SDS011;44117;57.142;24.826;2022-09-27T14:16:40;6.60;;;4.80;;
58308;SDS011;44117;57.142;24.826;2022-09-27T14:19:16;4.28;;;3.88;;
58308;SDS011;44117;57.142;24.826;2022-09-27T14:21:45;6.15;;;3.78;;
58308;SDS011;44117;57.142;24.826;2022-09-27T14:24:30;4.03;;;3.63;;
58308;SDS011;44117;57.142;24.826;2022-09-27T14:29:39;4.22;;;3.63;;
58308;SDS011;44117;57.142;24.826;2022-09-27T14:32:11;4.43;;;3.67;;
58308;SDS011;44117;57.142;24.826;2022-09-27T14:35:04;5.13;;;3.60;;
58308;SDS011;44117;57.142;24.826;2022-09-27T14:38:04;5.25;;;3.55;;
58308;SDS011;44117;57.142;24.826;2022-09-27T14:40:59;5.85;;;3.85;;
58308;SDS011;44117;57.142;24.826;2022-09-27T14:43:29;5.82;;;3.80;;
58308;SDS011;44117;57.142;24.826;2022-09-27T14:46:01;7.25;;;4.07;;
58308;SDS011;44117;57.142;24.826;2022-09-27T14:51:02;5.10;;;3.63;;
58308;SDS011;44117;57.142;24.826;2022-09-27T14:53:41;6.47;;;3.88;;
58308;SDS011;44117;57.142;24.826;2022-09-27T14:56:19;4.85;;;4.35;;
58308;SDS011;44117;57.142;24.826;2022-09-27T14:58:53;5.65;;;4.40;;
58308;SDS011;44117;57.142;24.826;2022-09-27T15:01:28;4.65;;;4.25;;
58308;SDS011;44117;57.142;24.826;2022-09-27T15:04:01;5.40;;;4.63;;
58308;SDS011;44117;57.142;24.826;2022-09-27T15:06:34;7.82;;;4.38;;
58308;SDS011;44117;57.142;24.826;2022-09-27T15:09:05;5.60;;;4.07;;
58308;SDS011;44117;57.142;24.826;2022-09-27T15:11:35;8.07;;;4.60;;
58308;SDS011;44117;57.142;24.826;2022-09-27T15:14:05;5.00;;;4.50;;
58308;SDS011;44117;57.142;24.826;2022-09-27T15:16:39;5.93;;;4.32;;
58308;SDS011;44117;57.142;24.826;2022-09-27T15:19:23;6.15;;;4.75;;
58308;SDS011;44117;57.142;24.826;2022-09-27T15:21:55;6.68;;;4.57;;
58308;SDS011;44117;57.142;24.826;2022-09-27T15:24:43;5.78;;;4.72;;
58308;SDS011;44117;57.142;24.826;2022-09-27T15:27:21;6.55;;;4.40;;
58308;SDS011;44117;57.142;24.826;2022-09-27T15:29:52;5.68;;;4.30;;
58308;SDS011;44117;57.142;24.826;2022-09-27T15:32:22;7.32;;;5.07;;
58308;SDS011;44117;57.142;24.826;2022-09-27T15:34:51;5.57;;;4.35;;
58308;SDS011;44117;57.142;24.826;2022-09-27T15:37:25;5.68;;;4.50;;
58308;SDS011;44117;57.142;24.826;2022-09-27T15:40:07;7.90;;;4.68;;
58308;SDS011;44117;57.142;24.826;2022-09-27T15:43:16;7.00;;;4.75;;
58308;SDS011;44117;57.142;24.826;2022-09-27T15:45:58;7.47;;;4.68;;
58308;SDS011;44117;57.142;24.826;2022-09-27T15:48:29;8.77;;;5.15;;
58308;SDS011;44117;57.142;24.826;2022-09-27T15:51:05;6.20;;;4.80;;
58308;SDS011;44117;57.142;24.826;2022-09-27T15:54:06;10.23;;;5.32;;
58308;SDS011;44117;57.142;24.826;2022-09-27T15:56:33;9.15;;;5.25;;
58308;SDS011;44117;57.142;24.826;2022-09-27T15:59:01;9.10;;;5.78;;
58308;SDS011;44117;57.142;24.826;2022-09-27T16:01:29;8.45;;;5.88;;
58308;SDS011;44117;57.142;24.826;2022-09-27T16:03:57;8.90;;;5.82;;
58308;SDS011;44117;57.142;24.826;2022-09-27T16:06:26;7.03;;;5.72;;
58308;SDS011;44117;57.142;24.826;2022-09-27T16:08:54;8.63;;;6.15;;
58308;SDS011;44117;57.142;24.826;2022-09-27T16:11:21;12.50;;;7.07;;
58308;SDS011;44117;57.142;24.826;2022-09-27T16:13:49;11.48;;;6.65;;
58308;SDS011;44117;57.142;24.826;2022-09-27T16:16:19;8.32;;;6.32;;
58308;SDS011;44117;57.142;24.826;2022-09-27T16:18:47;8.85;;;5.70;;
58308;SDS011;44117;57.142;24.826;2022-09-27T16:21:15;11.93;;;5.88;;
58308;SDS011;44117;57.142;24.826;2022-09-27T16:23:43;18.27;;;14.55;;
58308;SDS011;44117;57.142;24.826;2022-09-27T16:26:10;17.70;;;12.25;;
58308;SDS011;44117;57.142;24.826;2022-09-27T16:28:39;10.35;;;7.35;;
58308;SDS011;44117;57.142;24.826;2022-09-27T16:31:06;8.52;;;7.03;;
58308;SDS011;44117;57.142;24.826;2022-09-27T16:33:38;8.85;;;6.72;;
58308;SDS011;44117;57.142;24.826;2022-09-27T16:36:06;8.57;;;6.03;;
58308;SDS011;44117;57.142;24.826;2022-09-27T16:38:41;6.35;;;5.70;;
58308;SDS011;44117;57.142;24.826;2022-09-27T16:41:09;8.02;;;5.78;;
58308;SDS011;44117;57.142;24.826;2022-09-27T16:43:36;11.45;;;5.90;;
58308;SDS011;44117;57.142;24.826;2022-09-27T16:46:04;7.40;;;6.10;;
58308;SDS011;44117;57.142;24.826;2022-09-27T16:48:34;7.97;;;5.30;;
58308;SDS011;44117;57.142;24.826;2022-09-27T16:51:04;8.95;;;5.32;;
58308;SDS011;44117;57.142;24.826;2022-09-27T16:53:56;6.40;;;5.32;;
58308;SDS011;44117;57.142;24.826;2022-09-27T16:56:23;6.90;;;5.55;;
58308;SDS011;44117;57.142;24.826;2022-09-27T16:58:51;8.63;;;5.93;;
58308;SDS011;44117;57.142;24.826;2022-09-27T17:01:19;8.80;;;5.97;;
58308;SDS011;44117;57.142;24.826;2022-09-27T17:03:48;6.50;;;5.80;;
58308;SDS011;44117;57.142;24.826;2022-09-27T17:06:22;6.22;;;5.20;;
58308;SDS011;44117;57.142;24.826;2022-09-27T17:08:50;6.15;;;5.40;;
58308;SDS011;44117;57.142;24.826;2022-09-27T17:11:17;7.85;;;5.93;;
58308;SDS011;44117;57.142;24.826;2022-09-27T17:13:46;8.18;;;5.45;;
58308;SDS011;44117;57.142;24.826;2022-09-27T17:16:15;6.35;;;5.55;;
58308;SDS011;44117;57.142;24.826;2022-09-27T17:18:42;6.30;;;5.57;;
58308;SDS011;44117;57.142;24.826;2022-09-27T17:21:10;6.32;;;5.57;;
58308;SDS011;44117;57.142;24.826;2022-09-27T17:23:38;8.18;;;6.22;;
58308;SDS011;44117;57.142;24.826;2022-09-27T17:26:19;11.40;;;6.43;;
58308;SDS011;44117;57.142;24.826;2022-09-27T17:28:48;8.18;;;6.68;;
58308;SDS011;44117;57.142;24.826;2022-09-27T17:31:16;9.90;;;7.15;;
58308;SDS011;44117;57.142;24.826;2022-09-27T17:33:45;9.95;;;7.88;;
58308;SDS011;44117;57.142;24.826;2022-09-27T17:36:15;10.90;;;7.88;;
58308;SDS011;44117;57.142;24.826;2022-09-27T17:38:50;10.23;;;7.60;;
58308;SDS011;44117;57.142;24.826;2022-09-27T17:41:22;12.00;;;7.53;;
58308;SDS011;44117;57.142;24.826;2022-09-27T17:43:54;10.65;;;7.82;;